De Xin Hai — BQBP — position and weather

sailwx.info

Track history (hours):
 
Tides and Currents Weather Stations Pressure Air Temp Water Temp Dewpoint Dewpoint Depression Visibility Wind Speed Wind Dir Waves Ship Positions

De Xin Hai

Last reported at 2017-Feb-26 16:04 UTC. Time now 2017-Feb-28 03:32 UTC.
Position N 38°40' E 120°26'.

Length 225 m; draft 6.9 m.

Type: Cargo ship. MMSI: 367344200.

Date/timePositionNaut miles runAvg speedWind from/ knotsBaromVisibWave heightAir tempDewpointWater temp
2017-Feb-26 16:04N 38°40' E 120°26'714.4
2017-Feb-26 15:33N 38°39' E 120°35'1413.8
2017-Feb-26 14:33N 38°37' E 120°53'1414.0
2017-Feb-26 13:33N 38°29' E 121°08'1313.2
2017-Feb-26 12:33N 38°24' E 121°23'1513.5
2017-Feb-26 11:25N 38°16' E 121°40'1213.5
2017-Feb-26 10:32N 38°09' E 121°53'1313.7
2017-Feb-26 09:33N 38°01' E 122°06'1913.8
2017-Feb-26 08:12N 37°50' E 122°25'  
Track history (hours):
 
Tides and Currents Weather Stations Pressure Air Temp Water Temp Dewpoint Dewpoint Depression Visibility Wind Speed Wind Dir Waves Ship Positions

De Xin Hai

Last reported at 2017-Feb-26 16:04 UTC. Time now 2017-Feb-28 03:32 UTC.
Position N 38°40' E 120°26'.

Length 225 m; draft 6.9 m.

Type: Cargo ship. MMSI: 367344200.

Date/timePositionNaut miles runAvg speedWind from/ knotsBaromVisibWave heightAir tempDewpointWater temp
2017-Feb-26 16:04N 38°40' E 120°26'714.4
2017-Feb-26 15:33N 38°39' E 120°35'1413.8
2017-Feb-26 14:33N 38°37' E 120°53'1414.0
2017-Feb-26 13:33N 38°29' E 121°08'1313.2
2017-Feb-26 12:33N 38°24' E 121°23'1513.5
2017-Feb-26 11:25N 38°16' E 121°40'1213.5
2017-Feb-26 10:32N 38°09' E 121°53'1313.7
2017-Feb-26 09:33N 38°01' E 122°06'1913.8
2017-Feb-26 08:12N 37°50' E 122°25'  

Dump ship's entire track history